sensor_id;sensor_type;location;lat;lon;timestamp;P1;durP1;ratioP1;P2;durP2;ratioP2
18933;SDS011;9599;53.706;10.384;2022-09-11T00:00:58;40.23;;;23.37;;
18933;SDS011;9599;53.706;10.384;2022-09-11T00:03:26;41.30;;;23.90;;
18933;SDS011;9599;53.706;10.384;2022-09-11T00:05:55;40.67;;;23.30;;
18933;SDS011;9599;53.706;10.384;2022-09-11T00:08:27;40.83;;;23.40;;
18933;SDS011;9599;53.706;10.384;2022-09-11T00:11:01;37.97;;;22.70;;
18933;SDS011;9599;53.706;10.384;2022-09-11T00:13:30;39.37;;;23.77;;
18933;SDS011;9599;53.706;10.384;2022-09-11T00:16:00;45.37;;;24.57;;
18933;SDS011;9599;53.706;10.384;2022-09-11T00:18:31;42.93;;;24.80;;
18933;SDS011;9599;53.706;10.384;2022-09-11T00:21:02;43.87;;;24.83;;
18933;SDS011;9599;53.706;10.384;2022-09-11T00:23:30;48.60;;;26.73;;
18933;SDS011;9599;53.706;10.384;2022-09-11T00:25:59;57.33;;;28.47;;
18933;SDS011;9599;53.706;10.384;2022-09-11T00:28:28;59.03;;;28.67;;
18933;SDS011;9599;53.706;10.384;2022-09-11T00:30:57;96.07;;;30.43;;
18933;SDS011;9599;53.706;10.384;2022-09-11T00:33:27;95.93;;;29.73;;
18933;SDS011;9599;53.706;10.384;2022-09-11T00:35:57;67.37;;;28.47;;
18933;SDS011;9599;53.706;10.384;2022-09-11T00:38:30;197.90;;;31.47;;
18933;SDS011;9599;53.706;10.384;2022-09-11T00:40:59;91.70;;;29.17;;
18933;SDS011;9599;53.706;10.384;2022-09-11T00:43:29;308.77;;;32.07;;
18933;SDS011;9599;53.706;10.384;2022-09-11T00:46:20;218.57;;;30.83;;
18933;SDS011;9599;53.706;10.384;2022-09-11T00:48:52;265.43;;;30.97;;
18933;SDS011;9599;53.706;10.384;2022-09-11T00:51:23;112.60;;;29.00;;
18933;SDS011;9599;53.706;10.384;2022-09-11T00:53:54;103.47;;;25.57;;
18933;SDS011;9599;53.706;10.384;2022-09-11T00:56:26;278.20;;;28.10;;
18933;SDS011;9599;53.706;10.384;2022-09-11T00:58:56;94.23;;;25.97;;
18933;SDS011;9599;53.706;10.384;2022-09-11T01:01:26;137.27;;;26.40;;
18933;SDS011;9599;53.706;10.384;2022-09-11T01:03:55;133.03;;;26.07;;
18933;SDS011;9599;53.706;10.384;2022-09-11T01:06:23;103.67;;;26.03;;
18933;SDS011;9599;53.706;10.384;2022-09-11T01:08:52;142.63;;;26.23;;
18933;SDS011;9599;53.706;10.384;2022-09-11T01:11:24;85.43;;;26.47;;
18933;SDS011;9599;53.706;10.384;2022-09-11T01:14:04;171.97;;;26.20;;
18933;SDS011;9599;53.706;10.384;2022-09-11T01:16:37;213.17;;;27.77;;
18933;SDS011;9599;53.706;10.384;2022-09-11T01:19:15;127.20;;;24.43;;
18933;SDS011;9599;53.706;10.384;2022-09-11T01:21:59;185.40;;;26.37;;
18933;SDS011;9599;53.706;10.384;2022-09-11T01:24:49;128.80;;;24.73;;
18933;SDS011;9599;53.706;10.384;2022-09-11T01:27:41;215.40;;;26.57;;
18933;SDS011;9599;53.706;10.384;2022-09-11T01:30:13;94.60;;;24.40;;
18933;SDS011;9599;53.706;10.384;2022-09-11T01:32:59;276.63;;;26.87;;
18933;SDS011;9599;53.706;10.384;2022-09-11T01:35:35;137.60;;;25.03;;
18933;SDS011;9599;53.706;10.384;2022-09-11T01:38:11;137.50;;;26.27;;
18933;SDS011;9599;53.706;10.384;2022-09-11T01:40:44;199.73;;;25.87;;
18933;SDS011;9599;53.706;10.384;2022-09-11T01:43:20;98.30;;;26.17;;
18933;SDS011;9599;53.706;10.384;2022-09-11T01:45:53;129.33;;;25.97;;
18933;SDS011;9599;53.706;10.384;2022-09-11T01:48:24;140.70;;;26.67;;
18933;SDS011;9599;53.706;10.384;2022-09-11T01:50:56;117.73;;;25.20;;
18933;SDS011;9599;53.706;10.384;2022-09-11T01:53:26;147.20;;;26.23;;
18933;SDS011;9599;53.706;10.384;2022-09-11T01:56:04;84.03;;;24.97;;
18933;SDS011;9599;53.706;10.384;2022-09-11T01:58:40;216.23;;;27.67;;
18933;SDS011;9599;53.706;10.384;2022-09-11T02:01:13;162.80;;;26.33;;
18933;SDS011;9599;53.706;10.384;2022-09-11T02:03:47;128.70;;;25.13;;
18933;SDS011;9599;53.706;10.384;2022-09-11T02:06:20;249.23;;;27.03;;
18933;SDS011;9599;53.706;10.384;2022-09-11T02:08:53;99.97;;;23.43;;
18933;SDS011;9599;53.706;10.384;2022-09-11T02:11:26;247.60;;;26.77;;
18933;SDS011;9599;53.706;10.384;2022-09-11T02:14:00;146.03;;;23.93;;
18933;SDS011;9599;53.706;10.384;2022-09-11T02:16:35;198.63;;;25.03;;
18933;SDS011;9599;53.706;10.384;2022-09-11T02:19:12;99.87;;;22.07;;
18933;SDS011;9599;53.706;10.384;2022-09-11T02:21:42;205.90;;;24.70;;
18933;SDS011;9599;53.706;10.384;2022-09-11T02:24:13;115.60;;;23.20;;
18933;SDS011;9599;53.706;10.384;2022-09-11T02:26:45;161.53;;;23.60;;
18933;SDS011;9599;53.706;10.384;2022-09-11T02:29:19;145.50;;;22.83;;
18933;SDS011;9599;53.706;10.384;2022-09-11T02:31:47;310.93;;;27.10;;
18933;SDS011;9599;53.706;10.384;2022-09-11T02:34:19;157.67;;;23.07;;
18933;SDS011;9599;53.706;10.384;2022-09-11T02:36:56;104.27;;;21.43;;
18933;SDS011;9599;53.706;10.384;2022-09-11T02:39:46;219.97;;;25.27;;
18933;SDS011;9599;53.706;10.384;2022-09-11T02:42:32;93.93;;;21.50;;
18933;SDS011;9599;53.706;10.384;2022-09-11T02:45:11;105.80;;;21.73;;
18933;SDS011;9599;53.706;10.384;2022-09-11T02:47:53;144.47;;;22.37;;
18933;SDS011;9599;53.706;10.384;2022-09-11T02:50:27;192.83;;;22.17;;
18933;SDS011;9599;53.706;10.384;2022-09-11T02:53:02;95.53;;;19.93;;
18933;SDS011;9599;53.706;10.384;2022-09-11T02:55:37;163.03;;;21.87;;
18933;SDS011;9599;53.706;10.384;2022-09-11T02:58:16;155.63;;;20.73;;
18933;SDS011;9599;53.706;10.384;2022-09-11T03:00:51;192.73;;;21.97;;
18933;SDS011;9599;53.706;10.384;2022-09-11T03:03:21;142.73;;;19.73;;
18933;SDS011;9599;53.706;10.384;2022-09-11T03:05:50;126.20;;;19.77;;
18933;SDS011;9599;53.706;10.384;2022-09-11T03:08:18;128.20;;;20.23;;
18933;SDS011;9599;53.706;10.384;2022-09-11T03:10:46;130.57;;;21.23;;
18933;SDS011;9599;53.706;10.384;2022-09-11T03:13:15;143.40;;;20.70;;
18933;SDS011;9599;53.706;10.384;2022-09-11T03:15:44;126.83;;;19.40;;
18933;SDS011;9599;53.706;10.384;2022-09-11T03:18:15;146.07;;;20.20;;
18933;SDS011;9599;53.706;10.384;2022-09-11T03:20:43;111.53;;;19.37;;
18933;SDS011;9599;53.706;10.384;2022-09-11T03:23:12;140.20;;;20.60;;
18933;SDS011;9599;53.706;10.384;2022-09-11T03:25:40;161.67;;;19.90;;
18933;SDS011;9599;53.706;10.384;2022-09-11T03:28:09;89.53;;;18.50;;
18933;SDS011;9599;53.706;10.384;2022-09-11T03:30:38;118.03;;;19.80;;
18933;SDS011;9599;53.706;10.384;2022-09-11T03:33:06;102.87;;;20.77;;
18933;SDS011;9599;53.706;10.384;2022-09-11T03:35:36;104.87;;;20.50;;
18933;SDS011;9599;53.706;10.384;2022-09-11T03:38:04;89.63;;;19.50;;
18933;SDS011;9599;53.706;10.384;2022-09-11T03:40:32;98.73;;;19.90;;
18933;SDS011;9599;53.706;10.384;2022-09-11T03:43:01;109.73;;;20.13;;
18933;SDS011;9599;53.706;10.384;2022-09-11T03:45:28;94.03;;;19.77;;
18933;SDS011;9599;53.706;10.384;2022-09-11T03:47:57;88.00;;;18.97;;
18933;SDS011;9599;53.706;10.384;2022-09-11T03:50:25;94.87;;;20.63;;
18933;SDS011;9599;53.706;10.384;2022-09-11T03:52:54;90.03;;;18.83;;
18933;SDS011;9599;53.706;10.384;2022-09-11T03:55:23;89.97;;;20.23;;
18933;SDS011;9599;53.706;10.384;2022-09-11T03:57:50;76.20;;;19.43;;
18933;SDS011;9599;53.706;10.384;2022-09-11T04:00:18;75.57;;;20.50;;
18933;SDS011;9599;53.706;10.384;2022-09-11T04:02:46;65.43;;;19.50;;
18933;SDS011;9599;53.706;10.384;2022-09-11T04:05:27;72.20;;;20.67;;
18933;SDS011;9599;53.706;10.384;2022-09-11T04:08:00;72.80;;;20.70;;
18933;SDS011;9599;53.706;10.384;2022-09-11T04:10:30;74.70;;;21.30;;
18933;SDS011;9599;53.706;10.384;2022-09-11T04:12:58;71.73;;;20.53;;
18933;SDS011;9599;53.706;10.384;2022-09-11T04:15:27;72.83;;;21.47;;
18933;SDS011;9599;53.706;10.384;2022-09-11T04:17:56;71.73;;;21.90;;
18933;SDS011;9599;53.706;10.384;2022-09-11T04:20:31;88.30;;;21.77;;
18933;SDS011;9599;53.706;10.384;2022-09-11T04:23:01;70.73;;;22.47;;
18933;SDS011;9599;53.706;10.384;2022-09-11T04:25:30;77.83;;;22.93;;
18933;SDS011;9599;53.706;10.384;2022-09-11T04:28:01;62.63;;;21.50;;
18933;SDS011;9599;53.706;10.384;2022-09-11T04:30:29;68.53;;;22.50;;
18933;SDS011;9599;53.706;10.384;2022-09-11T04:32:58;60.90;;;22.23;;
18933;SDS011;9599;53.706;10.384;2022-09-11T04:35:27;71.67;;;22.90;;
18933;SDS011;9599;53.706;10.384;2022-09-11T04:37:57;60.50;;;21.27;;
18933;SDS011;9599;53.706;10.384;2022-09-11T04:40:26;60.73;;;20.83;;
18933;SDS011;9599;53.706;10.384;2022-09-11T04:42:54;68.00;;;21.67;;
18933;SDS011;9599;53.706;10.384;2022-09-11T04:45:22;66.83;;;21.73;;
18933;SDS011;9599;53.706;10.384;2022-09-11T04:47:51;68.17;;;22.13;;
18933;SDS011;9599;53.706;10.384;2022-09-11T04:50:19;70.47;;;21.87;;
18933;SDS011;9599;53.706;10.384;2022-09-11T04:53:05;68.83;;;21.10;;
18933;SDS011;9599;53.706;10.384;2022-09-11T04:55:35;64.50;;;19.97;;
18933;SDS011;9599;53.706;10.384;2022-09-11T04:58:02;67.77;;;19.50;;
18933;SDS011;9599;53.706;10.384;2022-09-11T05:00:30;59.83;;;18.63;;
18933;SDS011;9599;53.706;10.384;2022-09-11T05:02:58;56.47;;;18.30;;
18933;SDS011;9599;53.706;10.384;2022-09-11T05:05:27;54.67;;;18.57;;
18933;SDS011;9599;53.706;10.384;2022-09-11T05:07:55;58.63;;;17.57;;
18933;SDS011;9599;53.706;10.384;2022-09-11T05:10:23;62.17;;;18.97;;
18933;SDS011;9599;53.706;10.384;2022-09-11T05:12:54;58.70;;;19.43;;
18933;SDS011;9599;53.706;10.384;2022-09-11T05:15:23;52.80;;;18.80;;
18933;SDS011;9599;53.706;10.384;2022-09-11T05:17:51;51.40;;;18.70;;
18933;SDS011;9599;53.706;10.384;2022-09-11T05:20:19;50.03;;;18.43;;
18933;SDS011;9599;53.706;10.384;2022-09-11T05:22:47;49.43;;;19.13;;
18933;SDS011;9599;53.706;10.384;2022-09-11T05:25:16;47.30;;;19.00;;
18933;SDS011;9599;53.706;10.384;2022-09-11T05:27:44;47.20;;;18.33;;
18933;SDS011;9599;53.706;10.384;2022-09-11T05:30:14;47.57;;;19.00;;
18933;SDS011;9599;53.706;10.384;2022-09-11T05:32:42;42.73;;;17.47;;
18933;SDS011;9599;53.706;10.384;2022-09-11T05:35:10;45.83;;;18.63;;
18933;SDS011;9599;53.706;10.384;2022-09-11T05:37:38;43.67;;;19.00;;
18933;SDS011;9599;53.706;10.384;2022-09-11T05:40:08;44.50;;;18.03;;
18933;SDS011;9599;53.706;10.384;2022-09-11T05:42:38;45.67;;;18.60;;
18933;SDS011;9599;53.706;10.384;2022-09-11T05:45:06;45.57;;;17.97;;
18933;SDS011;9599;53.706;10.384;2022-09-11T05:47:36;41.50;;;18.87;;
18933;SDS011;9599;53.706;10.384;2022-09-11T05:50:05;36.47;;;18.30;;
18933;SDS011;9599;53.706;10.384;2022-09-11T05:52:34;32.77;;;16.20;;
18933;SDS011;9599;53.706;10.384;2022-09-11T05:55:02;33.00;;;16.27;;
18933;SDS011;9599;53.706;10.384;2022-09-11T05:57:31;33.53;;;16.53;;
18933;SDS011;9599;53.706;10.384;2022-09-11T05:59:59;30.87;;;16.33;;
18933;SDS011;9599;53.706;10.384;2022-09-11T06:02:31;29.80;;;15.33;;
18933;SDS011;9599;53.706;10.384;2022-09-11T06:05:00;29.00;;;15.27;;
18933;SDS011;9599;53.706;10.384;2022-09-11T06:07:30;27.40;;;15.90;;
18933;SDS011;9599;53.706;10.384;2022-09-11T06:09:58;28.90;;;16.03;;
18933;SDS011;9599;53.706;10.384;2022-09-11T06:12:30;26.90;;;15.20;;
18933;SDS011;9599;53.706;10.384;2022-09-11T06:14:58;28.30;;;15.57;;
18933;SDS011;9599;53.706;10.384;2022-09-11T06:17:25;28.27;;;15.13;;
18933;SDS011;9599;53.706;10.384;2022-09-11T06:19:53;26.80;;;15.07;;
18933;SDS011;9599;53.706;10.384;2022-09-11T06:22:22;31.37;;;15.70;;
18933;SDS011;9599;53.706;10.384;2022-09-11T06:24:51;27.27;;;14.67;;
18933;SDS011;9599;53.706;10.384;2022-09-11T06:27:21;25.37;;;14.77;;
18933;SDS011;9599;53.706;10.384;2022-09-11T06:29:51;24.80;;;14.73;;
18933;SDS011;9599;53.706;10.384;2022-09-11T06:32:20;27.73;;;14.20;;
18933;SDS011;9599;53.706;10.384;2022-09-11T06:34:49;22.43;;;13.57;;
18933;SDS011;9599;53.706;10.384;2022-09-11T06:37:17;23.13;;;13.43;;
18933;SDS011;9599;53.706;10.384;2022-09-11T06:39:48;23.60;;;12.73;;
18933;SDS011;9599;53.706;10.384;2022-09-11T06:42:23;22.77;;;12.57;;
18933;SDS011;9599;53.706;10.384;2022-09-11T06:44:51;21.40;;;12.43;;
18933;SDS011;9599;53.706;10.384;2022-09-11T06:47:19;18.30;;;11.57;;
18933;SDS011;9599;53.706;10.384;2022-09-11T06:49:47;20.43;;;12.40;;
18933;SDS011;9599;53.706;10.384;2022-09-11T06:52:26;19.43;;;12.00;;
18933;SDS011;9599;53.706;10.384;2022-09-11T06:55:06;18.20;;;11.63;;
18933;SDS011;9599;53.706;10.384;2022-09-11T06:57:44;21.20;;;12.70;;
18933;SDS011;9599;53.706;10.384;2022-09-11T07:00:15;17.30;;;11.10;;
18933;SDS011;9599;53.706;10.384;2022-09-11T07:02:43;18.03;;;11.53;;
18933;SDS011;9599;53.706;10.384;2022-09-11T07:05:12;15.77;;;10.93;;
18933;SDS011;9599;53.706;10.384;2022-09-11T07:07:44;16.80;;;10.87;;
18933;SDS011;9599;53.706;10.384;2022-09-11T07:10:16;17.43;;;11.67;;
18933;SDS011;9599;53.706;10.384;2022-09-11T07:12:51;17.30;;;11.30;;
18933;SDS011;9599;53.706;10.384;2022-09-11T07:15:20;16.00;;;11.00;;
18933;SDS011;9599;53.706;10.384;2022-09-11T07:17:48;14.47;;;9.73;;
18933;SDS011;9599;53.706;10.384;2022-09-11T07:20:17;15.57;;;10.27;;
18933;SDS011;9599;53.706;10.384;2022-09-11T07:22:46;15.67;;;10.30;;
18933;SDS011;9599;53.706;10.384;2022-09-11T07:25:16;13.83;;;9.80;;
18933;SDS011;9599;53.706;10.384;2022-09-11T07:27:45;13.63;;;9.40;;
18933;SDS011;9599;53.706;10.384;2022-09-11T07:30:14;12.97;;;10.03;;
18933;SDS011;9599;53.706;10.384;2022-09-11T07:32:45;13.20;;;9.80;;
18933;SDS011;9599;53.706;10.384;2022-09-11T07:35:13;12.53;;;9.60;;
18933;SDS011;9599;53.706;10.384;2022-09-11T07:37:48;11.90;;;9.00;;
18933;SDS011;9599;53.706;10.384;2022-09-11T07:40:22;10.17;;;8.47;;
18933;SDS011;9599;53.706;10.384;2022-09-11T07:42:50;12.10;;;9.17;;
18933;SDS011;9599;53.706;10.384;2022-09-11T07:45:19;9.10;;;8.10;;
18933;SDS011;9599;53.706;10.384;2022-09-11T07:47:48;11.27;;;8.67;;
18933;SDS011;9599;53.706;10.384;2022-09-11T07:50:17;11.17;;;9.37;;
18933;SDS011;9599;53.706;10.384;2022-09-11T07:52:44;10.07;;;7.77;;
18933;SDS011;9599;53.706;10.384;2022-09-11T07:55:14;9.87;;;8.03;;
18933;SDS011;9599;53.706;10.384;2022-09-11T07:57:43;9.67;;;8.33;;
18933;SDS011;9599;53.706;10.384;2022-09-11T08:00:12;11.37;;;8.73;;
18933;SDS011;9599;53.706;10.384;2022-09-11T08:02:52;12.57;;;9.50;;
18933;SDS011;9599;53.706;10.384;2022-09-11T08:05:28;10.60;;;9.03;;
18933;SDS011;9599;53.706;10.384;2022-09-11T08:07:56;9.07;;;8.10;;
18933;SDS011;9599;53.706;10.384;2022-09-11T08:10:25;8.73;;;7.53;;
18933;SDS011;9599;53.706;10.384;2022-09-11T08:12:56;9.60;;;7.93;;
18933;SDS011;9599;53.706;10.384;2022-09-11T08:15:30;8.73;;;7.83;;
18933;SDS011;9599;53.706;10.384;2022-09-11T08:18:00;10.27;;;8.50;;
18933;SDS011;9599;53.706;10.384;2022-09-11T08:20:29;9.80;;;8.40;;
18933;SDS011;9599;53.706;10.384;2022-09-11T08:22:57;9.73;;;7.93;;
18933;SDS011;9599;53.706;10.384;2022-09-11T08:25:25;12.13;;;7.97;;
18933;SDS011;9599;53.706;10.384;2022-09-11T08:27:54;7.60;;;6.80;;
18933;SDS011;9599;53.706;10.384;2022-09-11T08:30:25;7.73;;;6.70;;
18933;SDS011;9599;53.706;10.384;2022-09-11T08:32:53;7.67;;;6.80;;
18933;SDS011;9599;53.706;10.384;2022-09-11T08:35:21;7.20;;;6.50;;
18933;SDS011;9599;53.706;10.384;2022-09-11T08:37:49;6.97;;;6.27;;
18933;SDS011;9599;53.706;10.384;2022-09-11T08:40:20;7.77;;;6.90;;
18933;SDS011;9599;53.706;10.384;2022-09-11T08:42:49;7.00;;;6.30;;
18933;SDS011;9599;53.706;10.384;2022-09-11T08:45:19;6.90;;;6.20;;
18933;SDS011;9599;53.706;10.384;2022-09-11T08:47:54;6.57;;;5.97;;
18933;SDS011;9599;53.706;10.384;2022-09-11T08:50:24;6.23;;;5.63;;
18933;SDS011;9599;53.706;10.384;2022-09-11T08:52:55;6.03;;;5.43;;
18933;SDS011;9599;53.706;10.384;2022-09-11T08:55:31;5.80;;;5.20;;
18933;SDS011;9599;53.706;10.384;2022-09-11T08:58:06;5.87;;;5.27;;
18933;SDS011;9599;53.706;10.384;2022-09-11T09:00:45;5.90;;;5.37;;
18933;SDS011;9599;53.706;10.384;2022-09-11T09:03:29;5.60;;;5.10;;
18933;SDS011;9599;53.706;10.384;2022-09-11T09:06:19;6.00;;;4.87;;
18933;SDS011;9599;53.706;10.384;2022-09-11T09:08:59;5.00;;;4.50;;
18933;SDS011;9599;53.706;10.384;2022-09-11T09:11:34;4.40;;;4.00;;
18933;SDS011;9599;53.706;10.384;2022-09-11T09:17:07;4.60;;;4.20;;
18933;SDS011;9599;53.706;10.384;2022-09-11T09:19:41;4.70;;;4.30;;
18933;SDS011;9599;53.706;10.384;2022-09-11T09:22:14;4.67;;;4.00;;
18933;SDS011;9599;53.706;10.384;2022-09-11T09:24:46;3.80;;;3.50;;
18933;SDS011;9599;53.706;10.384;2022-09-11T09:27:17;3.60;;;3.30;;
18933;SDS011;9599;53.706;10.384;2022-09-11T09:29:50;3.90;;;3.60;;
18933;SDS011;9599;53.706;10.384;2022-09-11T09:32:24;3.47;;;3.17;;
18933;SDS011;9599;53.706;10.384;2022-09-11T09:34:59;3.77;;;3.23;;
18933;SDS011;9599;53.706;10.384;2022-09-11T09:37:32;3.37;;;3.07;;
18933;SDS011;9599;53.706;10.384;2022-09-11T09:40:01;3.30;;;3.00;;
18933;SDS011;9599;53.706;10.384;2022-09-11T09:42:34;3.63;;;3.33;;
18933;SDS011;9599;53.706;10.384;2022-09-11T09:45:34;3.60;;;3.30;;
18933;SDS011;9599;53.706;10.384;2022-09-11T09:48:07;3.43;;;2.90;;
18933;SDS011;9599;53.706;10.384;2022-09-11T09:50:37;3.53;;;3.23;;
18933;SDS011;9599;53.706;10.384;2022-09-11T09:53:09;3.30;;;3.00;;
18933;SDS011;9599;53.706;10.384;2022-09-11T09:55:45;3.30;;;3.00;;
18933;SDS011;9599;53.706;10.384;2022-09-11T09:58:13;3.53;;;3.23;;
18933;SDS011;9599;53.706;10.384;2022-09-11T10:00:41;3.60;;;3.30;;
18933;SDS011;9599;53.706;10.384;2022-09-11T10:03:17;3.33;;;3.03;;
18933;SDS011;9599;53.706;10.384;2022-09-11T10:05:46;3.43;;;3.13;;
18933;SDS011;9599;53.706;10.384;2022-09-11T10:08:23;3.43;;;3.13;;
18933;SDS011;9599;53.706;10.384;2022-09-11T10:10:55;3.33;;;2.90;;
18933;SDS011;9599;53.706;10.384;2022-09-11T10:13:24;2.73;;;2.37;;
18933;SDS011;9599;53.706;10.384;2022-09-11T10:15:54;2.77;;;2.20;;
18933;SDS011;9599;53.706;10.384;2022-09-11T10:18:39;2.90;;;2.07;;
18933;SDS011;9599;53.706;10.384;2022-09-11T10:21:13;1.90;;;1.80;;
18933;SDS011;9599;53.706;10.384;2022-09-11T10:23:48;2.27;;;2.13;;
18933;SDS011;9599;53.706;10.384;2022-09-11T10:26:18;2.07;;;1.90;;
18933;SDS011;9599;53.706;10.384;2022-09-11T10:28:50;2.97;;;2.77;;
18933;SDS011;9599;53.706;10.384;2022-09-11T10:31:20;3.43;;;2.80;;
18933;SDS011;9599;53.706;10.384;2022-09-11T10:33:51;3.07;;;2.60;;
18933;SDS011;9599;53.706;10.384;2022-09-11T10:36:22;3.03;;;2.83;;
18933;SDS011;9599;53.706;10.384;2022-09-11T10:38:52;2.60;;;2.40;;
18933;SDS011;9599;53.706;10.384;2022-09-11T10:41:22;2.27;;;2.07;;
18933;SDS011;9599;53.706;10.384;2022-09-11T10:43:52;2.80;;;2.60;;
18933;SDS011;9599;53.706;10.384;2022-09-11T10:46:33;2.87;;;2.57;;
18933;SDS011;9599;53.706;10.384;2022-09-11T10:49:17;2.80;;;2.60;;
18933;SDS011;9599;53.706;10.384;2022-09-11T10:52:00;2.90;;;2.40;;
18933;SDS011;9599;53.706;10.384;2022-09-11T10:57:28;2.50;;;2.30;;
18933;SDS011;9599;53.706;10.384;2022-09-11T11:00:02;2.50;;;2.00;;
18933;SDS011;9599;53.706;10.384;2022-09-11T11:02:34;2.90;;;2.70;;
18933;SDS011;9599;53.706;10.384;2022-09-11T11:05:09;2.50;;;2.30;;
18933;SDS011;9599;53.706;10.384;2022-09-11T11:08:00;3.07;;;2.80;;
18933;SDS011;9599;53.706;10.384;2022-09-11T11:10:47;3.03;;;2.73;;
18933;SDS011;9599;53.706;10.384;2022-09-11T11:13:38;3.03;;;2.50;;
18933;SDS011;9599;53.706;10.384;2022-09-11T11:16:18;2.40;;;2.27;;
18933;SDS011;9599;53.706;10.384;2022-09-11T11:18:55;2.40;;;2.17;;
18933;SDS011;9599;53.706;10.384;2022-09-11T11:21:38;2.20;;;2.00;;
18933;SDS011;9599;53.706;10.384;2022-09-11T11:24:25;2.80;;;2.10;;
18933;SDS011;9599;53.706;10.384;2022-09-11T11:27:08;2.17;;;2.07;;
18933;SDS011;9599;53.706;10.384;2022-09-11T11:30:00;2.20;;;2.00;;
18933;SDS011;9599;53.706;10.384;2022-09-11T11:32:44;2.00;;;1.90;;
18933;SDS011;9599;53.706;10.384;2022-09-11T11:35:21;2.03;;;1.93;;
18933;SDS011;9599;53.706;10.384;2022-09-11T11:37:54;5.00;;;2.10;;
18933;SDS011;9599;53.706;10.384;2022-09-11T11:40:30;2.70;;;2.10;;
18933;SDS011;9599;53.706;10.384;2022-09-11T11:43:02;2.20;;;2.10;;
18933;SDS011;9599;53.706;10.384;2022-09-11T11:45:35;2.40;;;2.20;;
18933;SDS011;9599;53.706;10.384;2022-09-11T11:48:08;2.50;;;2.30;;
18933;SDS011;9599;53.706;10.384;2022-09-11T11:50:41;2.57;;;2.37;;
18933;SDS011;9599;53.706;10.384;2022-09-11T11:53:15;2.50;;;2.30;;
18933;SDS011;9599;53.706;10.384;2022-09-11T11:55:49;2.87;;;1.90;;
18933;SDS011;9599;53.706;10.384;2022-09-11T11:58:26;1.63;;;1.53;;
18933;SDS011;9599;53.706;10.384;2022-09-11T12:01:05;2.00;;;1.87;;
18933;SDS011;9599;53.706;10.384;2022-09-11T12:03:41;2.10;;;1.60;;
18933;SDS011;9599;53.706;10.384;2022-09-11T12:06:14;2.00;;;1.90;;
18933;SDS011;9599;53.706;10.384;2022-09-11T12:08:43;1.93;;;1.70;;
18933;SDS011;9599;53.706;10.384;2022-09-11T12:11:13;2.10;;;1.90;;
18933;SDS011;9599;53.706;10.384;2022-09-11T12:13:45;2.70;;;1.97;;
18933;SDS011;9599;53.706;10.384;2022-09-11T12:16:15;2.40;;;2.20;;
18933;SDS011;9599;53.706;10.384;2022-09-11T12:18:59;2.40;;;2.20;;
18933;SDS011;9599;53.706;10.384;2022-09-11T12:21:34;2.70;;;2.50;;
18933;SDS011;9599;53.706;10.384;2022-09-11T12:24:13;2.40;;;2.20;;
18933;SDS011;9599;53.706;10.384;2022-09-11T12:26:43;2.57;;;2.30;;
18933;SDS011;9599;53.706;10.384;2022-09-11T12:32:18;3.03;;;2.23;;
18933;SDS011;9599;53.706;10.384;2022-09-11T12:34:56;3.23;;;2.80;;
18933;SDS011;9599;53.706;10.384;2022-09-11T12:37:28;2.50;;;2.30;;
18933;SDS011;9599;53.706;10.384;2022-09-11T12:40:05;2.47;;;2.27;;
18933;SDS011;9599;53.706;10.384;2022-09-11T12:42:44;2.60;;;2.40;;
18933;SDS011;9599;53.706;10.384;2022-09-11T12:45:30;2.50;;;2.20;;
18933;SDS011;9599;53.706;10.384;2022-09-11T12:48:02;2.30;;;2.03;;
18933;SDS011;9599;53.706;10.384;2022-09-11T12:50:32;1.93;;;1.83;;
18933;SDS011;9599;53.706;10.384;2022-09-11T12:53:01;2.27;;;1.70;;
18933;SDS011;9599;53.706;10.384;2022-09-11T12:55:33;2.47;;;1.60;;
18933;SDS011;9599;53.706;10.384;2022-09-11T12:58:06;1.70;;;1.60;;
18933;SDS011;9599;53.706;10.384;2022-09-11T13:00:50;1.70;;;1.60;;
18933;SDS011;9599;53.706;10.384;2022-09-11T13:03:28;2.00;;;1.67;;
18933;SDS011;9599;53.706;10.384;2022-09-11T13:05:57;1.90;;;1.80;;
18933;SDS011;9599;53.706;10.384;2022-09-11T13:08:29;1.93;;;1.83;;
18933;SDS011;9599;53.706;10.384;2022-09-11T13:17:14;2.20;;;2.00;;
18933;SDS011;9599;53.706;10.384;2022-09-11T13:19:51;2.13;;;1.90;;
18933;SDS011;9599;53.706;10.384;2022-09-11T13:22:21;2.00;;;1.90;;
18933;SDS011;9599;53.706;10.384;2022-09-11T13:25:02;2.10;;;1.83;;
18933;SDS011;9599;53.706;10.384;2022-09-11T13:27:34;2.10;;;1.90;;
18933;SDS011;9599;53.706;10.384;2022-09-11T13:30:05;2.23;;;2.00;;
18933;SDS011;9599;53.706;10.384;2022-09-11T13:32:33;1.93;;;1.83;;
18933;SDS011;9599;53.706;10.384;2022-09-11T13:35:03;1.83;;;1.73;;
18933;SDS011;9599;53.706;10.384;2022-09-11T13:37:37;2.03;;;1.80;;
18933;SDS011;9599;53.706;10.384;2022-09-11T13:40:14;1.90;;;1.80;;
18933;SDS011;9599;53.706;10.384;2022-09-11T13:42:47;1.90;;;1.80;;
18933;SDS011;9599;53.706;10.384;2022-09-11T13:45:16;4.53;;;2.00;;
18933;SDS011;9599;53.706;10.384;2022-09-11T13:47:45;1.80;;;1.70;;
18933;SDS011;9599;53.706;10.384;2022-09-11T13:50:13;2.50;;;1.70;;
18933;SDS011;9599;53.706;10.384;2022-09-11T13:52:43;2.33;;;1.70;;
18933;SDS011;9599;53.706;10.384;2022-09-11T13:55:14;2.43;;;1.80;;
18933;SDS011;9599;53.706;10.384;2022-09-11T13:57:50;1.93;;;1.73;;
18933;SDS011;9599;53.706;10.384;2022-09-11T14:00:39;2.50;;;2.20;;
18933;SDS011;9599;53.706;10.384;2022-09-11T14:03:16;2.00;;;1.80;;
18933;SDS011;9599;53.706;10.384;2022-09-11T14:05:48;2.47;;;2.27;;
18933;SDS011;9599;53.706;10.384;2022-09-11T14:08:24;2.27;;;2.10;;
18933;SDS011;9599;53.706;10.384;2022-09-11T14:10:58;2.30;;;2.10;;
18933;SDS011;9599;53.706;10.384;2022-09-11T14:13:31;2.00;;;1.90;;
18933;SDS011;9599;53.706;10.384;2022-09-11T14:16:04;2.20;;;2.00;;
18933;SDS011;9599;53.706;10.384;2022-09-11T14:18:38;2.10;;;2.00;;
18933;SDS011;9599;53.706;10.384;2022-09-11T14:21:11;2.90;;;2.17;;
18933;SDS011;9599;53.706;10.384;2022-09-11T14:23:42;2.87;;;2.53;;
18933;SDS011;9599;53.706;10.384;2022-09-11T14:26:14;2.33;;;2.10;;
18933;SDS011;9599;53.706;10.384;2022-09-11T14:28:59;2.37;;;2.17;;
18933;SDS011;9599;53.706;10.384;2022-09-11T14:31:30;2.30;;;1.93;;
18933;SDS011;9599;53.706;10.384;2022-09-11T14:34:13;1.83;;;1.73;;
18933;SDS011;9599;53.706;10.384;2022-09-11T14:36:50;1.90;;;1.80;;
18933;SDS011;9599;53.706;10.384;2022-09-11T14:39:22;1.93;;;1.83;;
18933;SDS011;9599;53.706;10.384;2022-09-11T14:41:53;2.20;;;2.00;;
18933;SDS011;9599;53.706;10.384;2022-09-11T14:44:24;2.10;;;1.80;;
18933;SDS011;9599;53.706;10.384;2022-09-11T14:46:53;1.90;;;1.80;;
18933;SDS011;9599;53.706;10.384;2022-09-11T14:49:21;2.10;;;1.90;;
18933;SDS011;9599;53.706;10.384;2022-09-11T14:51:51;2.20;;;1.80;;
18933;SDS011;9599;53.706;10.384;2022-09-11T14:54:23;1.80;;;1.70;;
18933;SDS011;9599;53.706;10.384;2022-09-11T14:56:52;2.10;;;1.83;;
18933;SDS011;9599;53.706;10.384;2022-09-11T14:59:20;1.97;;;1.87;;
18933;SDS011;9599;53.706;10.384;2022-09-11T15:01:49;2.07;;;1.87;;
18933;SDS011;9599;53.706;10.384;2022-09-11T15:04:18;2.00;;;1.83;;
18933;SDS011;9599;53.706;10.384;2022-09-11T15:06:49;1.80;;;1.70;;
18933;SDS011;9599;53.706;10.384;2022-09-11T15:09:19;1.80;;;1.70;;
18933;SDS011;9599;53.706;10.384;2022-09-11T15:11:46;2.43;;;1.77;;
18933;SDS011;9599;53.706;10.384;2022-09-11T15:14:15;2.20;;;2.00;;
18933;SDS011;9599;53.706;10.384;2022-09-11T15:17:05;1.57;;;1.47;;